createdAt,value
2023-04-19T00:01:26.394Z,98518.00
2023-04-19T00:05:29.037Z,98522.13
2023-04-19T00:09:31.160Z,98513.44
2023-04-19T00:13:33.177Z,98511.25
2023-04-19T00:17:35.786Z,98508.25
2023-04-19T00:21:37.880Z,98510.19
2023-04-19T00:25:40.088Z,98504.69
2023-04-19T00:29:42.122Z,98497.63
2023-04-19T00:33:44.158Z,98507.25
2023-04-19T00:37:46.304Z,98511.19
2023-04-19T00:41:49.313Z,98501.25
2023-04-19T00:45:53.811Z,98502.88
2023-04-19T00:49:56.024Z,98499.44
2023-04-19T00:53:58.591Z,98502.84
2023-04-19T00:58:01.209Z,98502.25
2023-04-19T01:02:03.397Z,98494.41
2023-04-19T01:06:10.527Z,98498.91
2023-04-19T01:10:21.293Z,98496.34
2023-04-19T01:14:26.867Z,98504.81
2023-04-19T01:18:37.498Z,98503.91
2023-04-19T01:22:41.100Z,98503.56
2023-04-19T01:26:43.222Z,98504.63
2023-04-19T01:30:45.263Z,98499.81
2023-04-19T01:34:49.374Z,98502.72
2023-04-19T01:38:51.699Z,98493.47
2023-04-19T01:42:53.955Z,98496.13
2023-04-19T01:46:56.778Z,98500.38
2023-04-19T01:50:58.980Z,98501.94
2023-04-19T01:55:01.713Z,98509.34
2023-04-19T01:59:05.515Z,98498.63
2023-04-19T02:03:07.783Z,98491.63
2023-04-19T02:07:13.199Z,98488.44
2023-04-19T02:11:16.082Z,98496.22
2023-04-19T02:15:18.131Z,98496.66
2023-04-19T02:19:20.397Z,98494.50
2023-04-19T02:23:22.552Z,98496.94
2023-04-19T02:27:24.709Z,98495.34
2023-04-19T02:31:26.716Z,98493.84
2023-04-19T02:35:28.873Z,98499.94
2023-04-19T02:39:34.380Z,98495.28
2023-04-19T02:43:36.405Z,98493.53
2023-04-19T02:47:39.511Z,98502.63
2023-04-19T02:51:41.611Z,98500.31
2023-04-19T02:55:44.051Z,98501.59
2023-04-19T02:59:51.320Z,98490.84
2023-04-19T03:03:53.583Z,98496.22
2023-04-19T03:07:55.967Z,98485.63
2023-04-19T03:11:58.456Z,98485.88
2023-04-19T03:16:00.746Z,98477.03
2023-04-19T03:20:09.867Z,98475.25
2023-04-19T03:24:12.480Z,98494.94
2023-04-19T03:28:19.609Z,98489.41
2023-04-19T03:32:40.415Z,98484.44
2023-04-19T03:36:43.607Z,98482.28
2023-04-19T03:40:47.169Z,98487.16
2023-04-19T03:44:51.183Z,98482.97
2023-04-19T03:48:54.965Z,98485.31
2023-04-19T03:52:58.332Z,98479.88
2023-04-19T03:57:00.695Z,98477.69
2023-04-19T04:01:03.622Z,98470.53
2023-04-19T04:05:07.295Z,98480.66
2023-04-19T04:09:11.115Z,98478.03
2023-04-19T04:13:13.149Z,98489.56
2023-04-19T04:17:24.593Z,98493.25
2023-04-19T04:21:28.332Z,98502.88
2023-04-19T04:25:37.568Z,98501.13
2023-04-19T04:29:44.024Z,98497.66
2023-04-19T04:33:46.442Z,98497.00
2023-04-19T04:37:50.118Z,98496.09
2023-04-19T04:41:53.326Z,98486.53
2023-04-19T04:45:57.891Z,98500.34
2023-04-19T04:50:02.876Z,98505.41
2023-04-19T04:54:05.829Z,98499.31
2023-04-19T04:58:09.016Z,98513.75
2023-04-19T05:02:25.818Z,98516.00
2023-04-19T05:06:28.992Z,98510.88
2023-04-19T05:10:31.288Z,98506.69
2023-04-19T05:19:18.392Z,98514.91
2023-04-19T05:23:26.429Z,98507.88
2023-04-19T05:27:29.599Z,98502.50
2023-04-19T05:31:32.157Z,98499.00
2023-04-19T05:35:56.663Z,98501.19
2023-04-19T05:39:59.327Z,98501.31
2023-04-19T05:44:01.479Z,98495.88
2023-04-19T05:48:04.598Z,98504.47
2023-04-19T05:52:09.895Z,98501.56
2023-04-19T05:56:19.286Z,98503.47
2023-04-19T06:00:25.448Z,98502.41
2023-04-19T06:04:36.371Z,98506.94
2023-04-19T06:08:38.617Z,98500.25
2023-04-19T06:12:40.712Z,98513.81
2023-04-19T06:16:42.777Z,98513.06
2023-04-19T06:20:44.798Z,98504.28
2023-04-19T06:24:47.769Z,98504.31
2023-04-19T06:28:50.171Z,98495.50
2023-04-19T06:32:52.767Z,98499.00
2023-04-19T06:36:54.868Z,98498.69
2023-04-19T06:40:57.071Z,98497.88
2023-04-19T06:44:59.130Z,98491.69
2023-04-19T06:49:01.172Z,98492.03
2023-04-19T06:53:04.960Z,98496.38
2023-04-19T06:57:07.229Z,98491.59
2023-04-19T07:01:09.229Z,98489.22
2023-04-19T07:05:12.960Z,98482.78
2023-04-19T07:09:14.986Z,98489.22
2023-04-19T07:13:17.123Z,98483.63
2023-04-19T07:17:19.833Z,98477.41
2023-04-19T07:21:22.048Z,98483.44
2023-04-19T07:25:24.255Z,98481.25
2023-04-19T07:29:26.648Z,98481.63
2023-04-19T07:33:29.048Z,98468.88
2023-04-19T07:37:31.362Z,98476.06
2023-04-19T07:41:34.429Z,98466.16
2023-04-19T07:45:37.582Z,98463.59
2023-04-19T07:49:39.620Z,98461.88
2023-04-19T07:53:41.961Z,98459.03
2023-04-19T07:57:48.236Z,98454.88
2023-04-19T08:01:50.645Z,98450.66
2023-04-19T08:05:53.205Z,98443.41
2023-04-19T08:09:55.821Z,98437.88
2023-04-19T08:14:06.924Z,98438.81
2023-04-19T08:18:19.998Z,98448.28
2023-04-19T08:22:22.099Z,98442.22
2023-04-19T08:26:24.298Z,98441.84
2023-04-19T08:30:26.761Z,98440.78
2023-04-19T08:34:29.142Z,98435.13
2023-04-19T08:38:31.285Z,98429.19
2023-04-19T08:42:36.830Z,98425.50
2023-04-19T08:46:39.335Z,98415.94
2023-04-19T08:51:00.616Z,98424.56
2023-04-19T08:55:09.116Z,98411.97
2023-04-19T08:59:20.133Z,98411.47
2023-04-19T09:03:22.648Z,98402.66
2023-04-19T09:07:26.948Z,98411.00
2023-04-19T09:11:40.933Z,98403.75
2023-04-19T09:15:44.816Z,98407.00
2023-04-19T09:19:49.247Z,98399.56
2023-04-19T09:23:51.498Z,98396.81
2023-04-19T09:27:53.856Z,98399.28
2023-04-19T09:31:59.647Z,98393.81
2023-04-19T09:36:03.187Z,98388.13
2023-04-19T09:40:25.190Z,98384.47
2023-04-19T09:48:33.848Z,98379.88
2023-04-19T09:52:36.931Z,98376.06
2023-04-19T09:56:39.675Z,98363.63
2023-04-19T10:00:49.036Z,98366.19
2023-04-19T10:05:11.097Z,98364.84
2023-04-19T10:09:19.169Z,98364.53
2023-04-19T10:13:26.655Z,98358.13
2023-04-19T10:17:29.222Z,98351.38
2023-04-19T10:21:32.857Z,98346.25
2023-04-19T10:25:38.083Z,98343.97
2023-04-19T10:29:59.061Z,98346.38
2023-04-19T10:34:02.266Z,98341.91
2023-04-19T10:38:04.419Z,98337.78
2023-04-19T10:42:06.633Z,98336.97
2023-04-19T10:46:20.872Z,98328.75
2023-04-19T10:50:23.969Z,98331.91
2023-04-19T10:54:31.555Z,98323.19
2023-04-19T10:58:53.572Z,98326.38
2023-04-19T11:02:56.042Z,98307.56
2023-04-19T11:07:01.669Z,98319.47
2023-04-19T11:11:03.856Z,98307.34
2023-04-19T11:15:06.400Z,98303.84
2023-04-19T11:19:08.285Z,98291.78
2023-04-19T11:23:16.497Z,98289.91
2023-04-19T11:27:18.433Z,98287.22
2023-04-19T11:31:20.619Z,98282.72
2023-04-19T11:35:27.815Z,98283.97
2023-04-19T11:39:30.128Z,98277.88
2023-04-19T11:43:32.977Z,98274.75
2023-04-19T11:47:48.183Z,98262.44
2023-04-19T11:51:54.790Z,98259.34
2023-04-19T11:56:07.181Z,98254.06
2023-04-19T12:00:12.789Z,98253.88
2023-04-19T12:04:15.139Z,98241.00
2023-04-19T12:08:17.565Z,98247.50
2023-04-19T12:12:32.326Z,98234.06
2023-04-19T12:16:34.421Z,98232.16
2023-04-19T12:20:37.449Z,98223.31
2023-04-19T12:24:40.954Z,98217.09
2023-04-19T12:28:42.924Z,98215.25
2023-04-19T12:32:45.200Z,98203.72
2023-04-19T12:36:47.823Z,98200.72
2023-04-19T12:40:50.572Z,98191.09
2023-04-19T12:44:52.671Z,98193.00
2023-04-19T12:48:54.668Z,98195.84
2023-04-19T12:52:56.722Z,98205.91
2023-04-19T12:56:58.731Z,98203.41
2023-04-19T13:01:01.326Z,98197.66
2023-04-19T13:05:05.195Z,98194.69
2023-04-19T13:09:14.233Z,98196.28
2023-04-19T13:13:17.211Z,98195.22
2023-04-19T13:17:19.801Z,98182.97
2023-04-19T13:21:23.653Z,98187.25
2023-04-19T13:25:25.667Z,98172.84
2023-04-19T13:29:29.246Z,98165.38
2023-04-19T13:33:31.459Z,98166.13
2023-04-19T13:37:33.474Z,98166.31
2023-04-19T13:41:35.790Z,98147.97
2023-04-19T13:45:37.762Z,98130.47
2023-04-19T13:49:39.677Z,98125.56
2023-04-19T13:53:41.640Z,98118.19
2023-04-19T13:57:44.151Z,98112.63
2023-04-19T14:01:46.160Z,98108.53
2023-04-19T14:05:48.144Z,98109.19
2023-04-19T14:09:50.251Z,98112.69
2023-04-19T14:13:52.788Z,98104.34
2023-04-19T14:17:54.895Z,98101.63
2023-04-19T14:21:56.977Z,98107.84
2023-04-19T14:26:00.426Z,98109.16
2023-04-19T14:30:02.659Z,98110.25
2023-04-19T14:34:07.833Z,98117.53
2023-04-19T14:38:09.966Z,98116.28
2023-04-19T14:42:12.180Z,98121.75
2023-04-19T14:46:14.159Z,98109.47
2023-04-19T14:50:16.631Z,98122.66
2023-04-19T14:54:18.689Z,98120.25
2023-04-19T14:58:20.734Z,98121.50
2023-04-19T15:02:22.908Z,98122.47
2023-04-19T15:06:25.050Z,98129.41
2023-04-19T15:10:27.000Z,98125.41
2023-04-19T15:14:29.000Z,98121.13
2023-04-19T15:18:31.026Z,98117.50
2023-04-19T15:22:35.113Z,98108.44
2023-04-19T15:26:44.083Z,98116.53
2023-04-19T15:30:54.048Z,98116.59
2023-04-19T15:34:57.193Z,98124.59
2023-04-19T15:38:59.353Z,98128.31
2023-04-19T15:43:02.320Z,98127.94
2023-04-19T15:47:04.589Z,98131.84
2023-04-19T15:51:08.225Z,98136.38
2023-04-19T15:55:10.326Z,98133.44
2023-04-19T15:59:12.763Z,98141.91
2023-04-19T16:03:15.206Z,98133.69
2023-04-19T16:07:17.680Z,98125.69
2023-04-19T16:11:22.021Z,98130.28
2023-04-19T16:15:24.361Z,98132.50
2023-04-19T16:19:26.334Z,98133.13
2023-04-19T16:23:28.416Z,98142.13
2023-04-19T16:27:31.476Z,98144.47
2023-04-19T16:31:34.396Z,98142.72
2023-04-19T16:35:38.541Z,98152.38
2023-04-19T16:39:40.716Z,98155.13
2023-04-19T16:43:42.743Z,98150.84
2023-04-19T16:47:46.154Z,98153.44
2023-04-19T16:51:48.413Z,98174.28
2023-04-19T16:55:50.636Z,98180.88
2023-04-19T16:59:52.513Z,98190.47
2023-04-19T17:03:54.716Z,98191.91
2023-04-19T17:07:57.203Z,98199.38
2023-04-19T17:11:59.212Z,98184.09
2023-04-19T17:16:01.188Z,98195.41
2023-04-19T17:20:05.652Z,98194.06
2023-04-19T17:24:07.791Z,98193.09
2023-04-19T17:28:09.821Z,98192.78
2023-04-19T17:32:11.822Z,98189.78
2023-04-19T17:36:13.877Z,98185.75
2023-04-19T17:40:15.973Z,98190.34
2023-04-19T17:44:17.954Z,98196.31
2023-04-19T17:48:19.891Z,98192.63
2023-04-19T17:52:21.955Z,98195.09
2023-04-19T17:56:24.484Z,98191.91
2023-04-19T18:00:26.752Z,98191.00
2023-04-19T18:04:29.377Z,98204.44
2023-04-19T18:08:31.936Z,98206.69
2023-04-19T18:12:33.872Z,98201.81
2023-04-19T18:16:36.067Z,98216.03
2023-04-19T18:20:38.162Z,98219.53
2023-04-19T18:24:43.424Z,98212.16
2023-04-19T18:28:45.379Z,98219.91
2023-04-19T18:32:47.469Z,98215.34
2023-04-19T18:36:49.933Z,98226.25
2023-04-19T18:40:51.964Z,98232.31
2023-04-19T18:44:54.793Z,98232.78
2023-04-19T18:48:56.862Z,98242.53
2023-04-19T18:52:58.925Z,98254.50
2023-04-19T19:01:06.608Z,98252.34
2023-04-19T19:05:09.128Z,98250.44
2023-04-19T19:09:11.783Z,98261.75
2023-04-19T19:13:13.689Z,98261.28
2023-04-19T19:17:15.907Z,98251.34
2023-04-19T19:21:18.807Z,98258.09
2023-04-19T19:25:21.133Z,98260.06
2023-04-19T19:29:23.388Z,98256.47
2023-04-19T19:33:28.761Z,98263.78
2023-04-19T19:37:31.144Z,98256.13
2023-04-19T19:42:03.431Z,98254.97
2023-04-19T19:45:54.965Z,98262.66
2023-04-19T19:54:07.512Z,98261.41
2023-04-19T19:58:42.213Z,98270.22
2023-04-19T20:02:34.258Z,98267.16
2023-04-19T20:07:25.308Z,98268.81
2023-04-19T20:10:58.703Z,98278.28
2023-04-19T20:15:00.792Z,98281.22
2023-04-19T20:19:09.629Z,98278.16
2023-04-19T20:23:11.774Z,98279.28
2023-04-19T20:27:14.010Z,98276.84
2023-04-19T20:31:16.238Z,98279.06
2023-04-19T20:35:18.439Z,98279.91
2023-04-19T20:39:20.609Z,98273.72
2023-04-19T20:43:22.554Z,98275.31
2023-04-19T20:47:27.459Z,98280.88
2023-04-19T20:51:29.837Z,98280.75
2023-04-19T20:55:31.756Z,98280.38
2023-04-19T20:59:34.014Z,98283.03
2023-04-19T21:03:36.262Z,98277.78
2023-04-19T21:07:38.269Z,98281.41
2023-04-19T21:11:40.307Z,98281.16
2023-04-19T21:15:42.327Z,98277.53
2023-04-19T21:19:44.576Z,98273.88
2023-04-19T21:23:46.452Z,98279.72
2023-04-19T21:27:48.437Z,98294.06
2023-04-19T21:31:50.351Z,98292.94
2023-04-19T21:35:52.260Z,98287.25
2023-04-19T21:39:54.694Z,98290.63
2023-04-19T21:43:57.042Z,98287.19
2023-04-19T21:47:59.037Z,98288.38
2023-04-19T21:52:01.346Z,98287.00
2023-04-19T21:56:03.329Z,98293.19
2023-04-19T22:00:06.608Z,98289.50
2023-04-19T22:04:12.096Z,98289.50
2023-04-19T22:08:14.342Z,98299.63
2023-04-19T22:12:16.238Z,98292.13
2023-04-19T22:16:18.427Z,98295.44
2023-04-19T22:20:21.098Z,98297.03
2023-04-19T22:24:23.235Z,98303.41
2023-04-19T22:28:25.528Z,98296.78
2023-04-19T22:32:38.569Z,98311.94
2023-04-19T22:37:01.207Z,98303.13
2023-04-19T22:41:03.422Z,98309.78
2023-04-19T22:45:05.689Z,98300.69
2023-04-19T22:49:10.416Z,98299.97
2023-04-19T22:53:12.829Z,98295.72
2023-04-19T22:57:14.898Z,98303.94
2023-04-19T23:01:17.050Z,98312.47
2023-04-19T23:05:19.147Z,98310.34
2023-04-19T23:09:21.040Z,98302.88
2023-04-19T23:13:23.185Z,98306.06
2023-04-19T23:17:25.586Z,98308.19
2023-04-19T23:21:30.076Z,98304.72
2023-04-19T23:25:32.271Z,98301.78
2023-04-19T23:29:34.687Z,98298.06
2023-04-19T23:33:36.687Z,98290.38
2023-04-19T23:37:38.677Z,98289.88
2023-04-19T23:41:40.976Z,98293.38
2023-04-19T23:45:43.161Z,98285.00
2023-04-19T23:49:45.065Z,98274.88
2023-04-19T23:53:47.040Z,98270.94
2023-04-19T23:57:49.492Z,98270.97
